sensor_id;sensor_type;location;lat;lon;timestamp;temperature;humidity
49238;DHT22;35069;47.906;1.892;2023-01-30T00:00:31;3.00;99.90
49238;DHT22;35069;47.906;1.892;2023-01-30T00:02:56;3.00;99.90
49238;DHT22;35069;47.906;1.892;2023-01-30T00:05:22;3.00;99.90
49238;DHT22;35069;47.906;1.892;2023-01-30T00:07:48;3.00;99.90
49238;DHT22;35069;47.906;1.892;2023-01-30T00:10:13;3.00;99.90
49238;DHT22;35069;47.906;1.892;2023-01-30T00:12:39;3.10;99.90
49238;DHT22;35069;47.906;1.892;2023-01-30T00:15:06;3.00;99.90
49238;DHT22;35069;47.906;1.892;2023-01-30T00:17:32;3.10;99.90
49238;DHT22;35069;47.906;1.892;2023-01-30T00:19:57;3.10;99.90
49238;DHT22;35069;47.906;1.892;2023-01-30T00:22:23;3.10;99.90
49238;DHT22;35069;47.906;1.892;2023-01-30T00:24:48;3.10;99.90
49238;DHT22;35069;47.906;1.892;2023-01-30T00:27:15;3.10;99.90
49238;DHT22;35069;47.906;1.892;2023-01-30T00:29:41;3.10;99.90
49238;DHT22;35069;47.906;1.892;2023-01-30T00:32:06;3.00;99.90
49238;DHT22;35069;47.906;1.892;2023-01-30T00:34:32;3.10;99.90
49238;DHT22;35069;47.906;1.892;2023-01-30T00:36:58;3.10;99.90
49238;DHT22;35069;47.906;1.892;2023-01-30T00:39:24;3.10;99.90
49238;DHT22;35069;47.906;1.892;2023-01-30T00:41:49;3.10;99.90
49238;DHT22;35069;47.906;1.892;2023-01-30T00:44:33;3.10;99.90
49238;DHT22;35069;47.906;1.892;2023-01-30T00:47:17;3.10;99.90
49238;DHT22;35069;47.906;1.892;2023-01-30T00:49:43;3.10;99.90
49238;DHT22;35069;47.906;1.892;2023-01-30T00:52:09;3.00;99.90
49238;DHT22;35069;47.906;1.892;2023-01-30T00:54:34;3.10;99.90
49238;DHT22;35069;47.906;1.892;2023-01-30T00:57:00;3.10;99.90
49238;DHT22;35069;47.906;1.892;2023-01-30T00:59:26;3.10;99.90
49238;DHT22;35069;47.906;1.892;2023-01-30T01:01:52;3.00;99.90
49238;DHT22;35069;47.906;1.892;2023-01-30T01:04:18;3.10;99.90
49238;DHT22;35069;47.906;1.892;2023-01-30T01:06:43;3.00;99.90
49238;DHT22;35069;47.906;1.892;2023-01-30T01:09:09;2.90;99.90
49238;DHT22;35069;47.906;1.892;2023-01-30T01:11:35;2.90;99.90
49238;DHT22;35069;47.906;1.892;2023-01-30T01:14:03;2.90;99.90
49238;DHT22;35069;47.906;1.892;2023-01-30T01:16:30;3.00;99.90
49238;DHT22;35069;47.906;1.892;2023-01-30T01:18:56;3.00;99.90
49238;DHT22;35069;47.906;1.892;2023-01-30T01:21:22;3.00;99.90
49238;DHT22;35069;47.906;1.892;2023-01-30T01:23:51;3.10;99.90
49238;DHT22;35069;47.906;1.892;2023-01-30T01:26:18;3.00;99.90
49238;DHT22;35069;47.906;1.892;2023-01-30T01:28:44;3.00;99.90
49238;DHT22;35069;47.906;1.892;2023-01-30T01:31:11;3.00;99.90
49238;DHT22;35069;47.906;1.892;2023-01-30T01:33:37;3.00;99.90
49238;DHT22;35069;47.906;1.892;2023-01-30T01:36:03;3.00;99.90
49238;DHT22;35069;47.906;1.892;2023-01-30T01:38:29;2.90;99.90
49238;DHT22;35069;47.906;1.892;2023-01-30T01:40:55;2.90;99.90
49238;DHT22;35069;47.906;1.892;2023-01-30T01:43:34;2.80;99.90
49238;DHT22;35069;47.906;1.892;2023-01-30T01:46:17;2.80;99.90
49238;DHT22;35069;47.906;1.892;2023-01-30T01:48:49;2.80;99.90
49238;DHT22;35069;47.906;1.892;2023-01-30T01:51:37;2.80;99.90
49238;DHT22;35069;47.906;1.892;2023-01-30T01:54:26;2.80;99.90
49238;DHT22;35069;47.906;1.892;2023-01-30T01:56:53;2.80;99.90
49238;DHT22;35069;47.906;1.892;2023-01-30T01:59:26;2.80;99.90
49238;DHT22;35069;47.906;1.892;2023-01-30T02:02:00;2.80;99.90
49238;DHT22;35069;47.906;1.892;2023-01-30T02:04:28;2.80;99.90
49238;DHT22;35069;47.906;1.892;2023-01-30T02:07:15;2.80;99.90
49238;DHT22;35069;47.906;1.892;2023-01-30T02:09:42;2.80;99.90
49238;DHT22;35069;47.906;1.892;2023-01-30T02:12:08;2.80;99.90
49238;DHT22;35069;47.906;1.892;2023-01-30T02:14:36;2.80;99.90
49238;DHT22;35069;47.906;1.892;2023-01-30T02:17:02;2.80;99.90
49238;DHT22;35069;47.906;1.892;2023-01-30T02:33:41;2.70;99.90
49238;DHT22;35069;47.906;1.892;2023-01-30T02:41:51;2.60;99.90
49238;DHT22;35069;47.906;1.892;2023-01-30T02:44:34;2.70;99.90
49238;DHT22;35069;47.906;1.892;2023-01-30T02:47:09;2.70;99.90
49238;DHT22;35069;47.906;1.892;2023-01-30T02:49:50;2.80;99.90
49238;DHT22;35069;47.906;1.892;2023-01-30T02:52:16;2.70;99.90
49238;DHT22;35069;47.906;1.892;2023-01-30T02:54:43;2.60;99.90
49238;DHT22;35069;47.906;1.892;2023-01-30T02:57:20;2.60;99.90
49238;DHT22;35069;47.906;1.892;2023-01-30T02:59:48;2.50;99.90
49238;DHT22;35069;47.906;1.892;2023-01-30T03:10:21;2.50;99.90
49238;DHT22;35069;47.906;1.892;2023-01-30T03:12:52;2.60;99.90
49238;DHT22;35069;47.906;1.892;2023-01-30T03:15:33;2.60;99.90
49238;DHT22;35069;47.906;1.892;2023-01-30T03:18:00;2.60;99.90
49238;DHT22;35069;47.906;1.892;2023-01-30T03:20:27;2.70;99.90
49238;DHT22;35069;47.906;1.892;2023-01-30T03:22:53;2.70;99.90
49238;DHT22;35069;47.906;1.892;2023-01-30T03:25:22;2.70;99.90
49238;DHT22;35069;47.906;1.892;2023-01-30T03:27:52;2.70;99.90
49238;DHT22;35069;47.906;1.892;2023-01-30T03:30:19;2.70;99.90
49238;DHT22;35069;47.906;1.892;2023-01-30T03:32:45;2.80;99.90
49238;DHT22;35069;47.906;1.892;2023-01-30T03:35:10;2.80;99.90
49238;DHT22;35069;47.906;1.892;2023-01-30T03:37:36;2.70;99.90
49238;DHT22;35069;47.906;1.892;2023-01-30T03:40:02;2.70;99.90
49238;DHT22;35069;47.906;1.892;2023-01-30T03:42:29;2.70;99.90
49238;DHT22;35069;47.906;1.892;2023-01-30T03:44:55;2.70;99.90
49238;DHT22;35069;47.906;1.892;2023-01-30T03:47:20;2.70;99.90
49238;DHT22;35069;47.906;1.892;2023-01-30T03:49:46;2.70;99.90
49238;DHT22;35069;47.906;1.892;2023-01-30T03:52:11;2.70;99.90
49238;DHT22;35069;47.906;1.892;2023-01-30T03:54:37;2.70;99.90
49238;DHT22;35069;47.906;1.892;2023-01-30T03:57:03;2.70;99.90
49238;DHT22;35069;47.906;1.892;2023-01-30T03:59:29;2.70;99.90
49238;DHT22;35069;47.906;1.892;2023-01-30T04:01:54;2.70;99.90
49238;DHT22;35069;47.906;1.892;2023-01-30T04:04:20;2.70;99.90
49238;DHT22;35069;47.906;1.892;2023-01-30T04:06:46;2.70;99.90
49238;DHT22;35069;47.906;1.892;2023-01-30T04:09:11;2.70;99.90
49238;DHT22;35069;47.906;1.892;2023-01-30T04:11:37;2.70;99.90
49238;DHT22;35069;47.906;1.892;2023-01-30T04:14:02;2.70;99.90
49238;DHT22;35069;47.906;1.892;2023-01-30T04:16:28;2.70;99.90
49238;DHT22;35069;47.906;1.892;2023-01-30T04:18:54;2.70;99.90
49238;DHT22;35069;47.906;1.892;2023-01-30T04:21:20;2.70;99.90
49238;DHT22;35069;47.906;1.892;2023-01-30T04:23:45;2.80;99.90
49238;DHT22;35069;47.906;1.892;2023-01-30T04:26:11;2.80;99.90
49238;DHT22;35069;47.906;1.892;2023-01-30T04:28:38;2.80;99.90
49238;DHT22;35069;47.906;1.892;2023-01-30T04:31:05;2.80;99.90
49238;DHT22;35069;47.906;1.892;2023-01-30T04:33:31;2.80;99.90
49238;DHT22;35069;47.906;1.892;2023-01-30T04:36:00;2.80;99.90
49238;DHT22;35069;47.906;1.892;2023-01-30T04:38:27;2.80;99.90
49238;DHT22;35069;47.906;1.892;2023-01-30T04:40:55;2.80;99.90
49238;DHT22;35069;47.906;1.892;2023-01-30T04:43:22;2.80;99.90
49238;DHT22;35069;47.906;1.892;2023-01-30T04:45:49;2.80;99.90
49238;DHT22;35069;47.906;1.892;2023-01-30T04:48:16;2.80;99.90
49238;DHT22;35069;47.906;1.892;2023-01-30T04:50:43;2.80;99.90
49238;DHT22;35069;47.906;1.892;2023-01-30T04:53:10;2.70;99.90
49238;DHT22;35069;47.906;1.892;2023-01-30T04:55:35;2.70;99.90
49238;DHT22;35069;47.906;1.892;2023-01-30T04:58:02;2.70;99.90
49238;DHT22;35069;47.906;1.892;2023-01-30T05:00:28;2.80;99.90
49238;DHT22;35069;47.906;1.892;2023-01-30T05:02:54;2.80;99.90
49238;DHT22;35069;47.906;1.892;2023-01-30T05:05:23;2.80;99.90
49238;DHT22;35069;47.906;1.892;2023-01-30T05:07:49;2.80;99.90
49238;DHT22;35069;47.906;1.892;2023-01-30T05:10:15;2.70;99.90
49238;DHT22;35069;47.906;1.892;2023-01-30T05:12:41;2.80;99.90
49238;DHT22;35069;47.906;1.892;2023-01-30T05:15:08;2.80;99.90
49238;DHT22;35069;47.906;1.892;2023-01-30T05:17:34;2.70;99.90
49238;DHT22;35069;47.906;1.892;2023-01-30T05:20:00;2.80;99.90
49238;DHT22;35069;47.906;1.892;2023-01-30T05:22:26;2.80;99.90
49238;DHT22;35069;47.906;1.892;2023-01-30T05:24:51;2.70;99.90
49238;DHT22;35069;47.906;1.892;2023-01-30T05:27:17;2.80;99.90
49238;DHT22;35069;47.906;1.892;2023-01-30T05:29:42;2.80;99.90
49238;DHT22;35069;47.906;1.892;2023-01-30T05:32:13;2.70;99.90
49238;DHT22;35069;47.906;1.892;2023-01-30T05:34:38;2.80;99.90
49238;DHT22;35069;47.906;1.892;2023-01-30T05:37:04;2.80;99.90
49238;DHT22;35069;47.906;1.892;2023-01-30T05:39:30;2.70;99.90
49238;DHT22;35069;47.906;1.892;2023-01-30T05:41:56;2.70;99.90
49238;DHT22;35069;47.906;1.892;2023-01-30T05:44:21;2.70;99.90
49238;DHT22;35069;47.906;1.892;2023-01-30T05:46:47;2.80;99.90
49238;DHT22;35069;47.906;1.892;2023-01-30T05:49:13;2.80;99.90
49238;DHT22;35069;47.906;1.892;2023-01-30T05:51:38;2.80;99.90
49238;DHT22;35069;47.906;1.892;2023-01-30T05:54:04;2.70;99.90
49238;DHT22;35069;47.906;1.892;2023-01-30T05:56:30;2.70;99.90
49238;DHT22;35069;47.906;1.892;2023-01-30T05:58:58;2.80;99.90
49238;DHT22;35069;47.906;1.892;2023-01-30T06:01:24;2.80;99.90
49238;DHT22;35069;47.906;1.892;2023-01-30T06:03:51;2.70;99.90
49238;DHT22;35069;47.906;1.892;2023-01-30T06:06:17;2.80;99.90
49238;DHT22;35069;47.906;1.892;2023-01-30T06:08:43;2.70;99.90
49238;DHT22;35069;47.906;1.892;2023-01-30T06:11:14;2.70;99.90
49238;DHT22;35069;47.906;1.892;2023-01-30T06:13:40;2.70;99.90
49238;DHT22;35069;47.906;1.892;2023-01-30T06:16:07;2.70;99.90
49238;DHT22;35069;47.906;1.892;2023-01-30T06:18:34;2.70;99.90
49238;DHT22;35069;47.906;1.892;2023-01-30T06:20:59;2.70;99.90
49238;DHT22;35069;47.906;1.892;2023-01-30T06:23:26;2.70;99.90
49238;DHT22;35069;47.906;1.892;2023-01-30T06:25:53;2.70;99.90
49238;DHT22;35069;47.906;1.892;2023-01-30T06:28:21;2.70;99.90
49238;DHT22;35069;47.906;1.892;2023-01-30T06:30:47;2.70;99.90
49238;DHT22;35069;47.906;1.892;2023-01-30T06:33:13;2.80;99.90
49238;DHT22;35069;47.906;1.892;2023-01-30T06:35:40;2.80;99.90
49238;DHT22;35069;47.906;1.892;2023-01-30T06:38:06;2.70;99.90
49238;DHT22;35069;47.906;1.892;2023-01-30T06:40:43;2.70;99.90
49238;DHT22;35069;47.906;1.892;2023-01-30T06:43:09;2.70;99.90
49238;DHT22;35069;47.906;1.892;2023-01-30T06:45:35;2.80;99.90
49238;DHT22;35069;47.906;1.892;2023-01-30T06:48:00;2.80;99.90
49238;DHT22;35069;47.906;1.892;2023-01-30T06:50:28;2.80;99.90
49238;DHT22;35069;47.906;1.892;2023-01-30T06:52:55;2.80;99.90
49238;DHT22;35069;47.906;1.892;2023-01-30T06:55:23;2.80;99.90
49238;DHT22;35069;47.906;1.892;2023-01-30T06:57:49;2.70;99.90
49238;DHT22;35069;47.906;1.892;2023-01-30T07:00:17;2.80;99.90
49238;DHT22;35069;47.906;1.892;2023-01-30T07:02:44;2.80;99.90
49238;DHT22;35069;47.906;1.892;2023-01-30T07:05:10;2.80;99.90
49238;DHT22;35069;47.906;1.892;2023-01-30T07:07:36;2.80;99.90
49238;DHT22;35069;47.906;1.892;2023-01-30T07:10:04;2.80;99.90
49238;DHT22;35069;47.906;1.892;2023-01-30T07:12:30;2.80;99.90
49238;DHT22;35069;47.906;1.892;2023-01-30T07:14:55;2.80;99.90
49238;DHT22;35069;47.906;1.892;2023-01-30T07:17:21;2.80;99.90
49238;DHT22;35069;47.906;1.892;2023-01-30T07:19:47;2.80;99.90
49238;DHT22;35069;47.906;1.892;2023-01-30T07:22:13;2.90;99.90
49238;DHT22;35069;47.906;1.892;2023-01-30T07:24:39;2.80;99.90
49238;DHT22;35069;47.906;1.892;2023-01-30T07:27:09;2.90;99.90
49238;DHT22;35069;47.906;1.892;2023-01-30T07:29:36;2.90;99.90
49238;DHT22;35069;47.906;1.892;2023-01-30T07:32:02;3.00;99.90
49238;DHT22;35069;47.906;1.892;2023-01-30T07:34:28;3.10;99.90
49238;DHT22;35069;47.906;1.892;2023-01-30T07:36:54;3.10;99.90
49238;DHT22;35069;47.906;1.892;2023-01-30T07:39:20;3.00;99.90
49238;DHT22;35069;47.906;1.892;2023-01-30T07:41:45;3.10;99.90
49238;DHT22;35069;47.906;1.892;2023-01-30T07:44:12;3.10;99.90
49238;DHT22;35069;47.906;1.892;2023-01-30T07:46:38;3.10;99.90
49238;DHT22;35069;47.906;1.892;2023-01-30T07:49:04;3.10;99.90
49238;DHT22;35069;47.906;1.892;2023-01-30T07:51:31;3.10;99.90
49238;DHT22;35069;47.906;1.892;2023-01-30T07:53:57;3.10;99.90
49238;DHT22;35069;47.906;1.892;2023-01-30T07:56:23;3.10;99.90
49238;DHT22;35069;47.906;1.892;2023-01-30T07:58:49;3.10;99.90
49238;DHT22;35069;47.906;1.892;2023-01-30T08:01:16;3.10;99.90
49238;DHT22;35069;47.906;1.892;2023-01-30T08:03:42;3.10;99.90
49238;DHT22;35069;47.906;1.892;2023-01-30T08:06:10;3.10;99.90
49238;DHT22;35069;47.906;1.892;2023-01-30T08:08:37;3.20;99.90
49238;DHT22;35069;47.906;1.892;2023-01-30T08:11:03;3.30;99.90
49238;DHT22;35069;47.906;1.892;2023-01-30T08:13:28;3.40;99.90
49238;DHT22;35069;47.906;1.892;2023-01-30T08:15:54;3.40;99.90
49238;DHT22;35069;47.906;1.892;2023-01-30T08:18:20;3.40;99.90
49238;DHT22;35069;47.906;1.892;2023-01-30T08:20:45;3.50;99.90
49238;DHT22;35069;47.906;1.892;2023-01-30T08:23:11;3.60;99.90
49238;DHT22;35069;47.906;1.892;2023-01-30T08:25:37;3.70;99.90
49238;DHT22;35069;47.906;1.892;2023-01-30T08:28:03;3.70;99.90
49238;DHT22;35069;47.906;1.892;2023-01-30T08:30:29;3.70;99.90
49238;DHT22;35069;47.906;1.892;2023-01-30T08:32:56;3.70;99.90
49238;DHT22;35069;47.906;1.892;2023-01-30T08:35:22;3.80;99.90
49238;DHT22;35069;47.906;1.892;2023-01-30T08:37:48;3.70;99.90
49238;DHT22;35069;47.906;1.892;2023-01-30T08:40:14;3.70;99.90
49238;DHT22;35069;47.906;1.892;2023-01-30T08:42:43;3.70;99.90
49238;DHT22;35069;47.906;1.892;2023-01-30T08:45:10;3.80;99.90
49238;DHT22;35069;47.906;1.892;2023-01-30T08:47:35;3.80;99.90
49238;DHT22;35069;47.906;1.892;2023-01-30T08:50:01;3.80;99.90
49238;DHT22;35069;47.906;1.892;2023-01-30T08:52:27;4.00;99.90
49238;DHT22;35069;47.906;1.892;2023-01-30T08:54:53;4.00;99.90
49238;DHT22;35069;47.906;1.892;2023-01-30T08:57:18;4.00;99.90
49238;DHT22;35069;47.906;1.892;2023-01-30T08:59:44;4.10;99.90
49238;DHT22;35069;47.906;1.892;2023-01-30T09:02:11;4.10;99.90
49238;DHT22;35069;47.906;1.892;2023-01-30T09:04:37;4.10;99.90
49238;DHT22;35069;47.906;1.892;2023-01-30T09:07:03;4.10;99.90
49238;DHT22;35069;47.906;1.892;2023-01-30T09:09:29;4.10;99.90
49238;DHT22;35069;47.906;1.892;2023-01-30T09:11:55;4.10;99.90
49238;DHT22;35069;47.906;1.892;2023-01-30T09:14:21;4.20;99.90
49238;DHT22;35069;47.906;1.892;2023-01-30T09:16:47;4.30;99.90
49238;DHT22;35069;47.906;1.892;2023-01-30T09:19:13;4.30;99.90
49238;DHT22;35069;47.906;1.892;2023-01-30T09:21:38;4.40;99.90
49238;DHT22;35069;47.906;1.892;2023-01-30T09:24:04;4.40;99.90
49238;DHT22;35069;47.906;1.892;2023-01-30T09:26:30;4.40;99.90
49238;DHT22;35069;47.906;1.892;2023-01-30T09:28:56;4.50;99.90
49238;DHT22;35069;47.906;1.892;2023-01-30T09:31:22;4.50;99.90
49238;DHT22;35069;47.906;1.892;2023-01-30T09:33:47;4.50;99.90
49238;DHT22;35069;47.906;1.892;2023-01-30T09:36:13;4.60;99.90
49238;DHT22;35069;47.906;1.892;2023-01-30T09:38:39;4.70;99.90
49238;DHT22;35069;47.906;1.892;2023-01-30T09:50:01;4.70;99.90
49238;DHT22;35069;47.906;1.892;2023-01-30T09:55:21;5.00;99.90
49238;DHT22;35069;47.906;1.892;2023-01-30T09:57:47;5.00;99.90
49238;DHT22;35069;47.906;1.892;2023-01-30T10:00:15;5.10;99.90
49238;DHT22;35069;47.906;1.892;2023-01-30T10:03:00;5.00;99.90
49238;DHT22;35069;47.906;1.892;2023-01-30T10:14:37;5.10;99.90
49238;DHT22;35069;47.906;1.892;2023-01-30T10:22:52;5.20;99.90
49238;DHT22;35069;47.906;1.892;2023-01-30T10:25:33;5.20;99.90
49238;DHT22;35069;47.906;1.892;2023-01-30T10:28:03;5.30;99.90
49238;DHT22;35069;47.906;1.892;2023-01-30T10:30:29;5.30;99.90
49238;DHT22;35069;47.906;1.892;2023-01-30T10:33:09;5.30;99.90
49238;DHT22;35069;47.906;1.892;2023-01-30T10:35:40;5.40;99.90
49238;DHT22;35069;47.906;1.892;2023-01-30T10:38:20;5.40;99.90
49238;DHT22;35069;47.906;1.892;2023-01-30T10:41:01;5.50;99.90
49238;DHT22;35069;47.906;1.892;2023-01-30T10:44:02;5.40;99.90
49238;DHT22;35069;47.906;1.892;2023-01-30T11:01:11;5.40;99.90
49238;DHT22;35069;47.906;1.892;2023-01-30T11:03:47;5.40;99.90
49238;DHT22;35069;47.906;1.892;2023-01-30T11:06:17;5.50;99.90
49238;DHT22;35069;47.906;1.892;2023-01-30T11:08:44;5.50;99.90
49238;DHT22;35069;47.906;1.892;2023-01-30T11:11:28;5.60;99.90
49238;DHT22;35069;47.906;1.892;2023-01-30T11:14:07;5.60;99.90
49238;DHT22;35069;47.906;1.892;2023-01-30T11:17:00;5.60;99.90
49238;DHT22;35069;47.906;1.892;2023-01-30T11:19:33;5.60;99.90
49238;DHT22;35069;47.906;1.892;2023-01-30T11:22:01;5.70;99.90
49238;DHT22;35069;47.906;1.892;2023-01-30T11:24:30;5.70;99.90
49238;DHT22;35069;47.906;1.892;2023-01-30T11:27:30;5.70;99.90
49238;DHT22;35069;47.906;1.892;2023-01-30T11:30:17;5.80;99.90
49238;DHT22;35069;47.906;1.892;2023-01-30T11:32:45;5.70;99.90
49238;DHT22;35069;47.906;1.892;2023-01-30T11:37:41;6.00;99.90
49238;DHT22;35069;47.906;1.892;2023-01-30T11:40:18;5.90;99.90
49238;DHT22;35069;47.906;1.892;2023-01-30T11:42:52;6.00;99.90
49238;DHT22;35069;47.906;1.892;2023-01-30T11:45:24;6.00;99.90
49238;DHT22;35069;47.906;1.892;2023-01-30T11:47:59;6.00;99.90
49238;DHT22;35069;47.906;1.892;2023-01-30T11:50:49;6.00;99.90
49238;DHT22;35069;47.906;1.892;2023-01-30T11:53:39;6.00;99.90
49238;DHT22;35069;47.906;1.892;2023-01-30T11:56:13;6.10;99.90
49238;DHT22;35069;47.906;1.892;2023-01-30T11:58:41;6.10;99.90
49238;DHT22;35069;47.906;1.892;2023-01-30T12:01:11;6.10;99.90
49238;DHT22;35069;47.906;1.892;2023-01-30T12:03:46;6.20;99.90
49238;DHT22;35069;47.906;1.892;2023-01-30T12:06:21;6.10;99.90
49238;DHT22;35069;47.906;1.892;2023-01-30T12:08:50;6.10;99.90
49238;DHT22;35069;47.906;1.892;2023-01-30T12:13:58;6.20;99.90
49238;DHT22;35069;47.906;1.892;2023-01-30T12:16:52;6.10;99.90
49238;DHT22;35069;47.906;1.892;2023-01-30T12:22:43;6.20;99.90
49238;DHT22;35069;47.906;1.892;2023-01-30T12:25:19;6.30;99.90
49238;DHT22;35069;47.906;1.892;2023-01-30T12:28:00;6.20;99.90
49238;DHT22;35069;47.906;1.892;2023-01-30T12:30:53;6.20;99.90
49238;DHT22;35069;47.906;1.892;2023-01-30T12:33:21;6.30;99.90
49238;DHT22;35069;47.906;1.892;2023-01-30T12:36:07;6.20;99.90
49238;DHT22;35069;47.906;1.892;2023-01-30T12:39:13;6.20;99.90
49238;DHT22;35069;47.906;1.892;2023-01-30T12:58:31;6.50;99.90
49238;DHT22;35069;47.906;1.892;2023-01-30T13:04:37;6.60;99.90
49238;DHT22;35069;47.906;1.892;2023-01-30T13:18:33;6.40;99.90
49238;DHT22;35069;47.906;1.892;2023-01-30T13:21:33;6.30;99.90
49238;DHT22;35069;47.906;1.892;2023-01-30T13:26:54;6.10;99.90
49238;DHT22;35069;47.906;1.892;2023-01-30T13:29:35;6.00;99.90
49238;DHT22;35069;47.906;1.892;2023-01-30T13:32:06;5.90;99.90
49238;DHT22;35069;47.906;1.892;2023-01-30T13:34:38;5.90;99.90
49238;DHT22;35069;47.906;1.892;2023-01-30T13:37:11;5.80;99.90
49238;DHT22;35069;47.906;1.892;2023-01-30T13:40:02;5.80;99.90
49238;DHT22;35069;47.906;1.892;2023-01-30T13:42:42;5.80;99.90
49238;DHT22;35069;47.906;1.892;2023-01-30T13:45:20;5.80;99.90
49238;DHT22;35069;47.906;1.892;2023-01-30T13:51:11;6.10;99.90
49238;DHT22;35069;47.906;1.892;2023-01-30T13:53:40;6.30;99.90
49238;DHT22;35069;47.906;1.892;2023-01-30T13:58:43;6.30;99.90
49238;DHT22;35069;47.906;1.892;2023-01-30T14:01:12;6.30;99.90
49238;DHT22;35069;47.906;1.892;2023-01-30T14:03:41;6.30;99.90
49238;DHT22;35069;47.906;1.892;2023-01-30T14:06:31;6.30;99.90
49238;DHT22;35069;47.906;1.892;2023-01-30T14:09:02;6.30;99.90
49238;DHT22;35069;47.906;1.892;2023-01-30T14:11:56;6.30;99.90
49238;DHT22;35069;47.906;1.892;2023-01-30T14:14:31;6.20;99.90
49238;DHT22;35069;47.906;1.892;2023-01-30T14:17:07;6.20;99.90
49238;DHT22;35069;47.906;1.892;2023-01-30T14:20:33;6.30;99.90
49238;DHT22;35069;47.906;1.892;2023-01-30T14:22:38;6.20;99.90
49238;DHT22;35069;47.906;1.892;2023-01-30T14:27:50;6.10;99.90
49238;DHT22;35069;47.906;1.892;2023-01-30T14:30:37;6.20;99.90
49238;DHT22;35069;47.906;1.892;2023-01-30T14:38:23;6.10;99.90
49238;DHT22;35069;47.906;1.892;2023-01-30T14:46:00;6.20;99.90
49238;DHT22;35069;47.906;1.892;2023-01-30T14:56:15;6.30;99.90
49238;DHT22;35069;47.906;1.892;2023-01-30T14:58:55;6.40;99.90
49238;DHT22;35069;47.906;1.892;2023-01-30T15:01:24;6.30;99.90
49238;DHT22;35069;47.906;1.892;2023-01-30T15:03:50;6.40;99.90
49238;DHT22;35069;47.906;1.892;2023-01-30T15:06:16;6.30;99.90
49238;DHT22;35069;47.906;1.892;2023-01-30T15:08:45;6.30;99.90
49238;DHT22;35069;47.906;1.892;2023-01-30T15:11:20;6.20;99.90
49238;DHT22;35069;47.906;1.892;2023-01-30T15:25:17;6.20;99.90
49238;DHT22;35069;47.906;1.892;2023-01-30T15:28:19;6.20;99.90
49238;DHT22;35069;47.906;1.892;2023-01-30T15:31:24;6.20;99.90
49238;DHT22;35069;47.906;1.892;2023-01-30T15:33:53;6.20;99.90
49238;DHT22;35069;47.906;1.892;2023-01-30T15:36:29;6.10;99.90
49238;DHT22;35069;47.906;1.892;2023-01-30T15:39:05;6.10;99.90
49238;DHT22;35069;47.906;1.892;2023-01-30T15:41:40;6.10;99.90
49238;DHT22;35069;47.906;1.892;2023-01-30T15:44:32;6.10;99.90
49238;DHT22;35069;47.906;1.892;2023-01-30T15:50:15;6.10;99.90
49238;DHT22;35069;47.906;1.892;2023-01-30T15:52:47;6.10;99.90
49238;DHT22;35069;47.906;1.892;2023-01-30T15:55:32;6.10;99.90
49238;DHT22;35069;47.906;1.892;2023-01-30T15:58:17;6.10;99.90
49238;DHT22;35069;47.906;1.892;2023-01-30T16:00:49;6.10;99.90
49238;DHT22;35069;47.906;1.892;2023-01-30T16:03:22;6.10;99.90
49238;DHT22;35069;47.906;1.892;2023-01-30T16:05:50;6.10;99.90
49238;DHT22;35069;47.906;1.892;2023-01-30T16:08:42;6.10;99.90
49238;DHT22;35069;47.906;1.892;2023-01-30T16:11:33;6.10;99.90
49238;DHT22;35069;47.906;1.892;2023-01-30T16:13:59;6.10;99.90
49238;DHT22;35069;47.906;1.892;2023-01-30T16:16:25;6.10;99.90
49238;DHT22;35069;47.906;1.892;2023-01-30T16:18:59;6.20;99.90
49238;DHT22;35069;47.906;1.892;2023-01-30T16:21:31;6.20;99.90
49238;DHT22;35069;47.906;1.892;2023-01-30T16:24:15;6.10;99.90
49238;DHT22;35069;47.906;1.892;2023-01-30T16:26:48;6.20;99.90
49238;DHT22;35069;47.906;1.892;2023-01-30T16:29:18;6.20;99.90
49238;DHT22;35069;47.906;1.892;2023-01-30T16:31:49;6.20;99.90
49238;DHT22;35069;47.906;1.892;2023-01-30T16:34:38;6.10;99.90
49238;DHT22;35069;47.906;1.892;2023-01-30T16:37:22;6.10;99.90
49238;DHT22;35069;47.906;1.892;2023-01-30T16:42:33;6.10;99.90
49238;DHT22;35069;47.906;1.892;2023-01-30T16:47:36;6.10;99.90
49238;DHT22;35069;47.906;1.892;2023-01-30T16:50:03;6.10;99.90
49238;DHT22;35069;47.906;1.892;2023-01-30T16:52:56;6.10;99.90
49238;DHT22;35069;47.906;1.892;2023-01-30T16:55:25;6.10;99.90
49238;DHT22;35069;47.906;1.892;2023-01-30T16:58:00;6.10;99.90
49238;DHT22;35069;47.906;1.892;2023-01-30T17:05:43;6.10;99.90
49238;DHT22;35069;47.906;1.892;2023-01-30T17:11:10;6.10;99.90
49238;DHT22;35069;47.906;1.892;2023-01-30T17:13:40;6.10;99.90
49238;DHT22;35069;47.906;1.892;2023-01-30T17:18:51;6.10;99.90
49238;DHT22;35069;47.906;1.892;2023-01-30T17:21:18;6.10;99.90
49238;DHT22;35069;47.906;1.892;2023-01-30T17:24:21;6.10;99.90
49238;DHT22;35069;47.906;1.892;2023-01-30T17:26:39;6.10;99.90
49238;DHT22;35069;47.906;1.892;2023-01-30T17:29:05;6.10;99.90
49238;DHT22;35069;47.906;1.892;2023-01-30T17:31:30;6.10;99.90
49238;DHT22;35069;47.906;1.892;2023-01-30T17:33:56;6.10;99.90
49238;DHT22;35069;47.906;1.892;2023-01-30T17:36:27;6.10;99.90
49238;DHT22;35069;47.906;1.892;2023-01-30T17:38:57;6.10;99.90
49238;DHT22;35069;47.906;1.892;2023-01-30T17:41:28;6.10;99.90
49238;DHT22;35069;47.906;1.892;2023-01-30T17:43:57;6.10;99.90
49238;DHT22;35069;47.906;1.892;2023-01-30T17:46:30;6.10;99.90
49238;DHT22;35069;47.906;1.892;2023-01-30T17:48:56;6.10;99.90
49238;DHT22;35069;47.906;1.892;2023-01-30T17:51:27;6.10;99.90
49238;DHT22;35069;47.906;1.892;2023-01-30T17:53:52;6.10;99.90
49238;DHT22;35069;47.906;1.892;2023-01-30T17:56:22;6.20;99.90
49238;DHT22;35069;47.906;1.892;2023-01-30T17:58:48;6.10;99.90
49238;DHT22;35069;47.906;1.892;2023-01-30T18:01:15;6.10;99.90
49238;DHT22;35069;47.906;1.892;2023-01-30T18:03:43;6.10;99.90
49238;DHT22;35069;47.906;1.892;2023-01-30T18:06:13;6.10;99.90
49238;DHT22;35069;47.906;1.892;2023-01-30T18:08:39;6.10;99.90
49238;DHT22;35069;47.906;1.892;2023-01-30T18:11:05;6.10;99.90
49238;DHT22;35069;47.906;1.892;2023-01-30T18:13:44;6.10;99.90
49238;DHT22;35069;47.906;1.892;2023-01-30T18:16:16;6.10;99.90
49238;DHT22;35069;47.906;1.892;2023-01-30T18:18:46;6.10;99.90
49238;DHT22;35069;47.906;1.892;2023-01-30T18:21:12;6.10;99.90
49238;DHT22;35069;47.906;1.892;2023-01-30T18:23:43;6.20;99.90
49238;DHT22;35069;47.906;1.892;2023-01-30T18:26:11;6.20;99.90
49238;DHT22;35069;47.906;1.892;2023-01-30T18:39:23;6.20;99.90
49238;DHT22;35069;47.906;1.892;2023-01-30T18:42:11;6.20;99.90
49238;DHT22;35069;47.906;1.892;2023-01-30T18:48:09;6.20;99.90
49238;DHT22;35069;47.906;1.892;2023-01-30T18:50:50;6.30;99.90
49238;DHT22;35069;47.906;1.892;2023-01-30T19:27:35;6.30;99.90
49238;DHT22;35069;47.906;1.892;2023-01-30T19:30:01;6.30;99.90
49238;DHT22;35069;47.906;1.892;2023-01-30T19:32:28;6.20;99.90
49238;DHT22;35069;47.906;1.892;2023-01-30T19:34:53;6.10;99.90
49238;DHT22;35069;47.906;1.892;2023-01-30T19:37:19;6.20;99.90
49238;DHT22;35069;47.906;1.892;2023-01-30T19:39:45;6.30;99.90
49238;DHT22;35069;47.906;1.892;2023-01-30T19:42:11;6.20;99.90